Time;durP1;ratioP1;P1;durP2;ratioP2;P2;SDS_P1;SDS_P2;PMS_P1;PMS_P2;Temp;Humidity;BMP_temperature;BMP_pressure;BME280_temperature;BME280_humidity;BME280_pressure;Samples;Min_cycle;Max_cycle;Signal;HPM_P1;HPM_P2
2023/09/16 00:01:57;;;;;;;3.83;2.57;;;;;;;;;;5057695;28;20190;-74
2023/09/16 00:08:21;;;;;;;3.83;2.57;;;;;;;;;;5075231;28;20166;-74
2023/09/16 00:14:49;;;;;;;4.13;2.40;;;;;;;;;;5075125;28;20171;-74
2023/09/16 00:21:18;;;;;;;3.60;2.43;;;;;;;;;;5074912;28;20214;-73
2023/09/16 00:27:45;;;;;;;5.03;2.37;;;;;;;;;;5075427;28;20204;-74
2023/09/16 00:30:16;;;;;;;4.17;2.60;;;;;;;;;;5057675;28;20189;-74
2023/09/16 00:32:47;;;;;;;4.83;2.63;;;;;;;;;;5057052;28;20592;-74
2023/09/16 00:35:15;;;;;;;7.50;3.10;;;;;;;;;;5057280;28;20644;-74
2023/09/16 00:41:44;;;;;;;7.27;3.40;;;;;;;;;;5074916;28;20157;-74
2023/09/16 00:44:13;;;;;;;10.17;4.00;;;;;;;;;;5056851;28;20532;-74
2023/09/16 00:46:42;;;;;;;8.87;4.00;;;;;;;;;;5048282;28;20206;-74
2023/09/16 00:49:12;;;;;;;10.40;4.03;;;;;;;;;;5040701;28;20185;-73
2023/09/16 00:51:44;;;;;;;9.83;4.17;;;;;;;;;;5057641;28;20218;-74
2023/09/16 00:54:15;;;;;;;10.67;4.47;;;;;;;;;;5042169;28;20189;-73
2023/09/16 01:05:02;;;;;;;11.23;4.33;;;;;;;;;;5072335;28;20222;-74
2023/09/16 01:07:35;;;;;;;10.63;4.80;;;;;;;;;;5057732;28;20198;-75
2023/09/16 01:10:10;;;;;;;12.63;4.63;;;;;;;;;;5042382;28;20556;-74
2023/09/16 01:52:03;;;;;;;10.00;3.57;;;;;;;;;;5076711;28;20512;-75
2023/09/16 01:58:27;;;;;;;6.03;3.23;;;;;;;;;;5077782;28;20611;-76
2023/09/16 02:01:02;;;;;;;5.23;3.20;;;;;;;;;;5059389;28;20222;-76
2023/09/16 02:07:35;;;;;;;6.53;3.57;;;;;;;;;;5057301;28;20197;-76
2023/09/16 02:10:03;;;;;;;8.87;3.70;;;;;;;;;;5038359;28;20203;-76
2023/09/16 02:12:30;;;;;;;7.50;3.80;;;;;;;;;;5039018;28;20190;-75
2023/09/16 02:14:57;;;;;;;6.67;3.70;;;;;;;;;;5021723;28;20214;-76
2023/09/16 02:17:25;;;;;;;7.23;3.70;;;;;;;;;;5038073;28;20210;-77
2023/09/16 02:19:52;;;;;;;7.00;3.43;;;;;;;;;;5037460;28;20654;-76
2023/09/16 02:22:18;;;;;;;7.90;3.57;;;;;;;;;;5021320;28;20218;-76
2023/09/16 02:24:45;;;;;;;6.80;3.40;;;;;;;;;;5037829;28;20433;-76
2023/09/16 02:27:12;;;;;;;7.67;3.60;;;;;;;;;;5037849;28;20632;-76
2023/09/16 02:33:38;;;;;;;5.47;3.33;;;;;;;;;;5055327;28;20216;-75
2023/09/16 02:36:05;;;;;;;5.03;3.10;;;;;;;;;;5037270;28;20191;-75
2023/09/16 02:38:32;;;;;;;5.03;3.23;;;;;;;;;;5037637;28;20183;-75
2023/09/16 02:44:59;;;;;;;5.83;2.63;;;;;;;;;;5055493;28;20146;-76
2023/09/16 02:47:27;;;;;;;4.63;2.87;;;;;;;;;;5054925;28;20222;-75
2023/09/16 02:53:49;;;;;;;6.00;2.60;;;;;;;;;;5055197;28;20161;-76
2023/09/16 02:56:18;;;;;;;4.10;2.50;;;;;;;;;;5037590;28;20202;-75
2023/09/16 03:02:47;;;;;;;3.90;2.50;;;;;;;;;;5054144;28;20225;-76
2023/09/16 03:05:15;;;;;;;4.27;2.70;;;;;;;;;;5037437;28;20189;-76
2023/09/16 03:11:37;;;;;;;4.43;2.60;;;;;;;;;;5054732;28;20233;-76
2023/09/16 03:14:04;;;;;;;4.30;2.80;;;;;;;;;;5036863;28;20183;-76
2023/09/16 03:16:31;;;;;;;6.53;2.83;;;;;;;;;;5054446;28;20240;-76
2023/09/16 03:23:00;;;;;;;2.63;2.10;;;;;;;;;;5055557;28;20157;-75
2023/09/16 03:25:41;;;;;;;3.70;2.07;;;;;;;;;;5022839;28;20191;-76
2023/09/16 03:28:16;;;;;;;3.93;2.17;;;;;;;;;;5054774;28;20851;-76
2023/09/16 03:34:50;;;;;;;3.60;2.47;;;;;;;;;;5054667;28;20404;-76
2023/09/16 03:37:17;;;;;;;4.27;2.57;;;;;;;;;;5037144;28;20194;-76
2023/09/16 03:39:45;;;;;;;5.37;2.57;;;;;;;;;;5037002;28;20195;-74
2023/09/16 03:42:12;;;;;;;4.63;2.30;;;;;;;;;;5020562;28;20650;-75
2023/09/16 03:48:39;;;;;;;5.67;2.47;;;;;;;;;;5054344;28;20206;-77
2023/09/16 03:51:07;;;;;;;4.03;2.30;;;;;;;;;;5053932;28;20518;-76
2023/09/16 03:53:36;;;;;;;5.77;2.53;;;;;;;;;;5036639;28;20189;-79
2023/09/16 03:56:11;;;;;;;7.63;2.60;;;;;;;;;;5037557;28;20796;-78
2023/09/16 03:58:40;;;;;;;4.77;2.87;;;;;;;;;;5027268;28;20444;-80
2023/09/16 04:01:19;;;;;;;10.73;3.13;;;;;;;;;;5045477;28;20816;-79
2023/09/16 04:07:47;;;;;;;8.90;3.37;;;;;;;;;;5054513;28;20512;-78
2023/09/16 04:10:37;;;;;;;11.53;3.87;;;;;;;;;;5053770;28;20969;-79
2023/09/16 04:13:06;;;;;;;21.67;7.37;;;;;;;;;;5053765;28;20412;-78
2023/09/16 04:15:37;;;;;;;14.60;5.80;;;;;;;;;;5053970;28;20317;-79
2023/09/16 04:18:08;;;;;;;23.83;7.30;;;;;;;;;;5038007;28;20911;-77
2023/09/16 04:20:40;;;;;;;25.03;9.57;;;;;;;;;;5053732;28;20483;-76
2023/09/16 04:23:14;;;;;;;30.37;9.60;;;;;;;;;;5053639;28;20190;-76
2023/09/16 04:26:04;;;;;;;24.57;9.03;;;;;;;;;;5050560;28;20912;-79
2023/09/16 04:28:56;;;;;;;21.93;8.03;;;;;;;;;;5053220;28;20966;-77
2023/09/16 04:31:37;;;;;;;24.53;8.63;;;;;;;;;;5036757;28;20425;-78
2023/09/16 04:34:10;;;;;;;23.67;9.53;;;;;;;;;;5022901;28;20444;-75
2023/09/16 04:40:40;;;;;;;24.17;8.80;;;;;;;;;;5054983;28;20870;-78
2023/09/16 04:43:15;;;;;;;25.93;8.70;;;;;;;;;;5023280;28;20445;-80
2023/09/16 04:45:54;;;;;;;25.03;8.60;;;;;;;;;;5037457;28;20437;-82
2023/09/16 04:48:48;;;;;;;21.93;8.37;;;;;;;;;;5027579;28;20623;-79
2023/09/16 04:51:23;;;;;;;25.83;7.87;;;;;;;;;;5021176;28;20490;-78
2023/09/16 04:53:56;;;;;;;19.40;7.47;;;;;;;;;;5021077;28;20528;-76
2023/09/16 04:56:29;;;;;;;24.47;7.67;;;;;;;;;;5021419;28;20465;-82
2023/09/16 04:59:05;;;;;;;22.17;7.00;;;;;;;;;;5022776;28;20456;-80
2023/09/16 05:05:40;;;;;;;24.77;6.47;;;;;;;;;;5057832;28;20447;-76
2023/09/16 05:12:07;;;;;;;14.50;5.23;;;;;;;;;;5058411;28;20376;-73
2023/09/16 05:18:36;;;;;;;13.90;5.00;;;;;;;;;;5057191;28;20210;-74
2023/09/16 05:21:05;;;;;;;13.93;5.60;;;;;;;;;;5023450;28;20442;-74
2023/09/16 05:23:54;;;;;;;11.73;5.00;;;;;;;;;;5058281;28;20159;-74
2023/09/16 05:26:25;;;;;;;10.93;5.10;;;;;;;;;;5024433;28;20232;-74
2023/09/16 05:32:45;;;;;;;14.13;5.00;;;;;;;;;;5057299;28;20200;-75
2023/09/16 05:35:19;;;;;;;15.73;5.27;;;;;;;;;;5008763;28;20594;-74
2023/09/16 05:37:48;;;;;;;16.27;5.80;;;;;;;;;;5024549;28;20947;-75
2023/09/16 05:40:16;;;;;;;14.63;5.83;;;;;;;;;;5039626;28;20630;-74
2023/09/16 05:42:46;;;;;;;18.53;6.70;;;;;;;;;;5039717;28;20205;-74
2023/09/16 05:45:13;;;;;;;17.60;7.20;;;;;;;;;;5023117;28;20278;-74
2023/09/16 05:47:40;;;;;;;13.43;6.07;;;;;;;;;;5039663;28;20537;-74
2023/09/16 05:50:07;;;;;;;12.90;5.57;;;;;;;;;;5023056;28;20210;-73
2023/09/16 05:52:34;;;;;;;11.60;5.40;;;;;;;;;;5022758;28;20186;-74
2023/09/16 05:55:21;;;;;;;13.07;6.07;;;;;;;;;;5049354;28;20615;-75
2023/09/16 06:01:52;;;;;;;12.73;5.90;;;;;;;;;;5057765;28;20185;-76
2023/09/16 06:04:30;;;;;;;15.10;5.83;;;;;;;;;;5040089;28;20229;-76
2023/09/16 06:07:14;;;;;;;10.40;5.50;;;;;;;;;;5041909;28;20534;-76
2023/09/16 06:09:42;;;;;;;8.63;4.77;;;;;;;;;;5042525;28;20217;-82
2023/09/16 06:16:05;;;;;;;8.30;4.33;;;;;;;;;;5059127;28;20259;-82
2023/09/16 06:18:35;;;;;;;7.17;3.93;;;;;;;;;;5042231;28;20213;-81
2023/09/16 06:21:07;;;;;;;9.10;3.90;;;;;;;;;;5041971;28;20191;-82
2023/09/16 06:23:37;;;;;;;6.83;4.43;;;;;;;;;;5041918;28;20191;-82
2023/09/16 06:26:06;;;;;;;9.60;4.97;;;;;;;;;;5023026;28;20285;-81
2023/09/16 06:28:35;;;;;;;8.63;6.23;;;;;;;;;;5057716;28;20207;-82
2023/09/16 06:31:05;;;;;;;10.33;5.53;;;;;;;;;;5026870;28;20199;-83
2023/09/16 06:33:41;;;;;;;6.80;4.80;;;;;;;;;;5023072;28;20306;-83
2023/09/16 06:36:08;;;;;;;7.27;4.47;;;;;;;;;;5055540;28;20183;-83
2023/09/16 06:38:35;;;;;;;7.03;3.90;;;;;;;;;;5024083;28;20221;-82
2023/09/16 06:41:06;;;;;;;7.97;4.40;;;;;;;;;;5042060;28;20175;-83
2023/09/16 06:43:38;;;;;;;6.53;4.30;;;;;;;;;;5042465;28;20191;-82
2023/09/16 06:46:17;;;;;;;5.67;3.57;;;;;;;;;;5028293;28;20190;-83
2023/09/16 06:48:48;;;;;;;5.77;4.00;;;;;;;;;;5042554;28;20222;-83
2023/09/16 06:51:21;;;;;;;6.43;4.00;;;;;;;;;;5018151;28;20277;-82
2023/09/16 06:53:52;;;;;;;6.47;4.33;;;;;;;;;;5043903;28;20191;-83
2023/09/16 06:56:26;;;;;;;6.67;4.00;;;;;;;;;;5060412;28;20190;-80
2023/09/16 06:58:59;;;;;;;6.77;3.40;;;;;;;;;;5025990;28;20582;-80
2023/09/16 07:09:28;;;;;;;6.17;2.43;;;;;;;;;;5059197;28;20158;-80
2023/09/16 07:11:58;;;;;;;5.90;2.20;;;;;;;;;;5040758;28;20194;-75
2023/09/16 07:14:27;;;;;;;3.33;2.23;;;;;;;;;;5023115;28;20206;-77
2023/09/16 07:17:04;;;;;;;3.77;2.30;;;;;;;;;;5057957;28;20240;-77
2023/09/16 07:19:34;;;;;;;4.07;2.13;;;;;;;;;;5058064;28;20194;-78
2023/09/16 07:22:01;;;;;;;2.80;2.20;;;;;;;;;;5058877;28;20190;-77
2023/09/16 07:24:31;;;;;;;3.40;2.27;;;;;;;;;;5041877;28;20224;-77
2023/09/16 07:26:58;;;;;;;4.53;2.60;;;;;;;;;;5075489;28;20201;-76
2023/09/16 07:29:26;;;;;;;3.67;2.00;;;;;;;;;;5075040;28;20213;-77
2023/09/16 07:31:53;;;;;;;3.80;2.13;;;;;;;;;;5075486;28;20264;-78
2023/09/16 07:34:22;;;;;;;4.53;2.20;;;;;;;;;;5075883;28;20231;-77
2023/09/16 07:36:49;;;;;;;2.97;2.00;;;;;;;;;;5041795;28;20237;-78
2023/09/16 07:39:17;;;;;;;6.00;2.23;;;;;;;;;;5057784;28;20189;-74
2023/09/16 07:42:01;;;;;;;6.00;2.37;;;;;;;;;;5059592;28;20158;-71
2023/09/16 07:44:28;;;;;;;5.30;2.27;;;;;;;;;;5056625;28;20185;-71
2023/09/16 07:46:56;;;;;;;3.30;1.93;;;;;;;;;;5073525;28;20180;-71
2023/09/16 07:49:23;;;;;;;5.57;2.03;;;;;;;;;;5072503;28;20198;-71
2023/09/16 07:51:50;;;;;;;3.80;2.00;;;;;;;;;;5073626;28;20195;-70
2023/09/16 07:54:20;;;;;;;3.53;1.97;;;;;;;;;;5072853;28;20273;-71
2023/09/16 07:56:47;;;;;;;2.90;1.90;;;;;;;;;;5056386;28;20261;-70
2023/09/16 07:59:19;;;;;;;6.70;2.43;;;;;;;;;;5073098;28;20226;-70
2023/09/16 08:01:47;;;;;;;2.87;1.83;;;;;;;;;;5072386;28;20178;-71
2023/09/16 08:04:14;;;;;;;4.07;1.90;;;;;;;;;;5056229;28;20225;-71
2023/09/16 08:06:42;;;;;;;3.90;2.20;;;;;;;;;;5055436;28;20686;-77
2023/09/16 08:09:09;;;;;;;4.23;1.60;;;;;;;;;;5041001;28;20241;-72
2023/09/16 08:11:36;;;;;;;6.27;2.40;;;;;;;;;;5074874;28;20668;-68
2023/09/16 08:14:03;;;;;;;4.03;1.93;;;;;;;;;;5072875;28;20190;-66
2023/09/16 08:16:31;;;;;;;5.87;2.20;;;;;;;;;;5073947;28;20226;-68
2023/09/16 08:18:58;;;;;;;5.93;2.00;;;;;;;;;;5074667;28;20192;-68
2023/09/16 08:21:25;;;;;;;4.70;2.00;;;;;;;;;;5055961;28;20223;-64
2023/09/16 08:23:52;;;;;;;4.73;2.10;;;;;;;;;;5056117;28;20205;-65
2023/09/16 08:26:20;;;;;;;4.43;2.30;;;;;;;;;;5055886;28;20192;-64
2023/09/16 08:28:49;;;;;;;7.73;2.00;;;;;;;;;;5073648;28;20239;-65
2023/09/16 08:31:17;;;;;;;4.97;2.37;;;;;;;;;;5040240;28;20193;-66
2023/09/16 08:33:44;;;;;;;4.13;2.40;;;;;;;;;;5074370;28;20182;-65
2023/09/16 08:36:11;;;;;;;3.87;2.00;;;;;;;;;;5060284;28;20216;-66
2023/09/16 08:38:38;;;;;;;5.13;2.00;;;;;;;;;;5076399;28;20186;-67
2023/09/16 08:41:10;;;;;;;3.57;2.17;;;;;;;;;;5078230;28;20191;-71
2023/09/16 08:43:41;;;;;;;4.60;2.20;;;;;;;;;;5061408;28;20250;-71
2023/09/16 08:46:11;;;;;;;2.97;1.90;;;;;;;;;;5044019;28;20200;-71
2023/09/16 08:48:42;;;;;;;4.17;2.00;;;;;;;;;;5060384;28;20545;-71
2023/09/16 08:51:12;;;;;;;5.77;2.30;;;;;;;;;;5043702;28;20200;-71
2023/09/16 08:53:42;;;;;;;4.10;2.23;;;;;;;;;;5044321;28;20239;-71
2023/09/16 08:56:14;;;;;;;4.93;1.70;;;;;;;;;;5060756;28;20179;-71
2023/09/16 08:58:43;;;;;;;5.10;2.07;;;;;;;;;;5060076;28;20197;-72
2023/09/16 09:01:19;;;;;;;3.30;2.00;;;;;;;;;;5059949;28;20182;-73
2023/09/16 09:03:56;;;;;;;5.63;2.10;;;;;;;;;;5059491;28;20189;-72
2023/09/16 09:06:31;;;;;;;4.33;2.03;;;;;;;;;;5077626;28;20169;-71
2023/09/16 09:09:08;;;;;;;5.33;1.73;;;;;;;;;;5076472;28;20574;-72
2023/09/16 09:11:37;;;;;;;4.77;2.20;;;;;;;;;;5061076;28;20248;-71
2023/09/16 09:18:05;;;;;;;2.87;2.00;;;;;;;;;;5077579;28;20155;-70
2023/09/16 09:20:34;;;;;;;3.73;2.07;;;;;;;;;;5059673;28;20203;-72
2023/09/16 09:23:05;;;;;;;3.10;1.73;;;;;;;;;;5059659;28;20218;-72
2023/09/16 09:25:41;;;;;;;3.33;2.00;;;;;;;;;;5059879;28;20279;-71
2023/09/16 09:28:13;;;;;;;3.83;2.13;;;;;;;;;;5059167;28;20234;-70
2023/09/16 09:30:44;;;;;;;4.90;2.40;;;;;;;;;;5059376;28;20680;-72
2023/09/16 09:33:17;;;;;;;3.93;2.10;;;;;;;;;;5077611;28;20244;-73
2023/09/16 09:35:54;;;;;;;4.40;2.10;;;;;;;;;;5060147;28;20204;-73
2023/09/16 09:38:28;;;;;;;5.63;2.53;;;;;;;;;;5059785;28;20282;-72
2023/09/16 09:45:02;;;;;;;7.80;2.10;;;;;;;;;;5076793;28;20212;-71
2023/09/16 09:47:31;;;;;;;2.67;1.93;;;;;;;;;;5059887;28;20177;-72
2023/09/16 09:50:04;;;;;;;4.37;2.30;;;;;;;;;;5059861;28;20193;-72
2023/09/16 09:52:34;;;;;;;2.83;2.17;;;;;;;;;;5059138;28;20529;-71
2023/09/16 09:55:01;;;;;;;3.43;2.43;;;;;;;;;;5077155;28;20198;-71
2023/09/16 10:01:35;;;;;;;6.67;2.50;;;;;;;;;;5076732;28;20230;-71
2023/09/16 10:04:06;;;;;;;4.33;2.60;;;;;;;;;;5042464;28;20243;-72
2023/09/16 10:06:33;;;;;;;6.07;2.40;;;;;;;;;;5058792;28;20178;-73
2023/09/16 10:09:04;;;;;;;2.70;2.10;;;;;;;;;;5042970;28;20271;-73
2023/09/16 10:11:37;;;;;;;7.83;2.20;;;;;;;;;;5059365;28;20212;-71
2023/09/16 10:14:09;;;;;;;5.93;2.30;;;;;;;;;;5059340;28;20183;-72
2023/09/16 10:16:39;;;;;;;3.10;2.10;;;;;;;;;;5058383;28;20678;-71
2023/09/16 10:19:07;;;;;;;6.73;2.40;;;;;;;;;;5076636;28;20192;-72
2023/09/16 10:21:37;;;;;;;7.60;2.40;;;;;;;;;;5058210;28;20184;-65
2023/09/16 10:24:04;;;;;;;4.27;2.17;;;;;;;;;;5074753;28;20300;-62
2023/09/16 10:26:31;;;;;;;7.30;2.23;;;;;;;;;;5074435;28;20214;-62
2023/09/16 10:28:58;;;;;;;6.53;2.20;;;;;;;;;;5058116;28;20295;-62
2023/09/16 10:35:28;;;;;;;6.77;2.27;;;;;;;;;;5075353;28;20186;-62
2023/09/16 10:37:58;;;;;;;3.50;2.17;;;;;;;;;;5074902;28;20485;-63
2023/09/16 10:44:20;;;;;;;4.43;2.20;;;;;;;;;;5075923;28;20236;-63
2023/09/16 10:46:48;;;;;;;8.20;2.40;;;;;;;;;;5057576;28;20174;-64
2023/09/16 10:49:15;;;;;;;4.17;2.23;;;;;;;;;;5073941;28;20256;-64
2023/09/16 10:51:42;;;;;;;4.10;2.63;;;;;;;;;;5057253;28;20292;-63
2023/09/16 10:58:42;;;;;;;5.70;1.90;;;;;;;;;;5073431;28;20192;-62
2023/09/16 11:01:13;;;;;;;4.50;2.30;;;;;;;;;;5074098;28;20575;-62
2023/09/16 11:03:44;;;;;;;3.57;2.13;;;;;;;;;;5057403;28;20190;-64
2023/09/16 11:06:12;;;;;;;2.77;1.97;;;;;;;;;;5056907;28;20202;-63
2023/09/16 11:08:39;;;;;;;4.87;2.27;;;;;;;;;;5057002;28;20233;-64
2023/09/16 11:11:06;;;;;;;3.03;1.90;;;;;;;;;;5057740;28;20198;-63
2023/09/16 11:13:33;;;;;;;2.53;2.17;;;;;;;;;;5073965;28;20208;-63
2023/09/16 11:16:00;;;;;;;2.83;2.10;;;;;;;;;;5057184;28;20675;-64
2023/09/16 11:18:28;;;;;;;3.87;2.10;;;;;;;;;;5074579;28;20200;-63
2023/09/16 11:25:16;;;;;;;2.30;2.10;;;;;;;;;;5074869;28;20206;-62
2023/09/16 11:27:45;;;;;;;9.73;2.50;;;;;;;;;;5057289;28;20165;-63
2023/09/16 11:30:13;;;;;;;5.87;2.20;;;;;;;;;;5074331;28;20218;-63
2023/09/16 11:32:55;;;;;;;5.53;2.13;;;;;;;;;;5040232;28;20190;-63
2023/09/16 11:35:39;;;;;;;5.07;2.17;;;;;;;;;;5074933;28;20169;-63
2023/09/16 11:42:07;;;;;;;6.90;2.43;;;;;;;;;;5074100;28;20158;-63
2023/09/16 11:44:35;;;;;;;4.07;2.20;;;;;;;;;;5055919;28;20203;-63
2023/09/16 11:50:57;;;;;;;3.73;2.30;;;;;;;;;;5075327;28;20542;-73
2023/09/16 11:53:28;;;;;;;3.57;2.20;;;;;;;;;;5057069;28;20193;-74
2023/09/16 11:55:56;;;;;;;5.67;2.43;;;;;;;;;;5056850;28;20193;-73
2023/09/16 12:01:53;;;;;;;4.00;2.30;;;;;;;;;;5077065;28;20181;-76
2023/09/16 12:04:25;;;;;;;4.00;2.23;;;;;;;;;;5043153;28;20234;-76
2023/09/16 12:10:46;;;;;;;3.63;2.20;;;;;;;;;;5074534;28;20242;-75
2023/09/16 12:13:24;;;;;;;6.37;2.27;;;;;;;;;;5057189;28;20178;-75
2023/09/16 12:15:51;;;;;;;4.30;2.00;;;;;;;;;;5056869;28;20323;-74
2023/09/16 12:18:18;;;;;;;7.97;2.30;;;;;;;;;;5074529;28;20622;-74
2023/09/16 12:20:45;;;;;;;3.47;2.20;;;;;;;;;;5074168;28;20182;-74
2023/09/16 12:23:13;;;;;;;3.60;1.93;;;;;;;;;;5056500;28;20278;-74
2023/09/16 12:25:40;;;;;;;4.77;2.20;;;;;;;;;;5073849;28;20217;-73
2023/09/16 12:28:10;;;;;;;2.77;2.07;;;;;;;;;;5039801;28;20223;-73
2023/09/16 12:30:40;;;;;;;5.50;2.20;;;;;;;;;;5056273;28;20185;-73
2023/09/16 12:33:07;;;;;;;3.43;2.33;;;;;;;;;;5056477;28;20182;-72
2023/09/16 12:35:38;;;;;;;3.27;1.90;;;;;;;;;;5068669;28;20194;-73
2023/09/16 12:38:07;;;;;;;7.33;2.03;;;;;;;;;;5042964;28;20264;-71
2023/09/16 12:40:37;;;;;;;5.17;2.13;;;;;;;;;;5042107;28;20225;-73
2023/09/16 12:43:06;;;;;;;3.27;2.20;;;;;;;;;;5041405;28;20190;-74
2023/09/16 12:45:36;;;;;;;4.07;2.20;;;;;;;;;;5024616;28;20197;-77
2023/09/16 12:48:06;;;;;;;3.17;2.13;;;;;;;;;;5024954;28;20645;-76
2023/09/16 12:50:39;;;;;;;2.90;2.00;;;;;;;;;;5059281;28;20213;-77
2023/09/16 12:53:08;;;;;;;5.83;2.00;;;;;;;;;;5039769;28;20182;-72
2023/09/16 12:55:39;;;;;;;2.60;1.90;;;;;;;;;;5072673;28;20197;-72
2023/09/16 12:58:07;;;;;;;3.10;2.20;;;;;;;;;;5039957;28;20201;-72
2023/09/16 13:00:37;;;;;;;3.67;2.20;;;;;;;;;;5024043;28;20213;-73
2023/09/16 13:03:04;;;;;;;3.53;2.30;;;;;;;;;;5055715;28;20192;-73
2023/09/16 13:09:30;;;;;;;5.33;2.27;;;;;;;;;;5073747;28;20579;-73
2023/09/16 13:15:58;;;;;;;3.83;2.00;;;;;;;;;;5073560;28;20539;-73
2023/09/16 13:18:25;;;;;;;5.57;2.63;;;;;;;;;;5072796;28;20190;-74
2023/09/16 13:20:53;;;;;;;4.03;2.03;;;;;;;;;;5073892;28;20194;-73
2023/09/16 13:23:26;;;;;;;4.33;2.20;;;;;;;;;;5059235;28;20181;-73
2023/09/16 13:25:54;;;;;;;3.57;2.33;;;;;;;;;;5060659;28;20258;-73
2023/09/16 13:28:22;;;;;;;3.10;2.20;;;;;;;;;;5077399;28;20190;-73
2023/09/16 13:30:53;;;;;;;6.63;2.50;;;;;;;;;;5059575;28;20189;-73
2023/09/16 13:33:29;;;;;;;3.43;2.47;;;;;;;;;;5042887;28;20186;-73
2023/09/16 13:35:56;;;;;;;3.23;2.30;;;;;;;;;;5058910;28;20221;-73
2023/09/16 13:42:16;;;;;;;4.07;2.37;;;;;;;;;;5076866;28;20249;-73
2023/09/16 13:44:44;;;;;;;3.43;2.10;;;;;;;;;;5076922;28;20186;-73
2023/09/16 13:47:12;;;;;;;6.53;2.67;;;;;;;;;;5042370;28;20194;-73
2023/09/16 13:49:40;;;;;;;3.60;2.17;;;;;;;;;;5059433;28;20297;-73
2023/09/16 13:52:07;;;;;;;4.77;2.30;;;;;;;;;;5075247;28;20186;-73
2023/09/16 14:02:33;;;;;;;4.20;2.23;;;;;;;;;;5076259;28;20152;-73
2023/09/16 14:05:00;;;;;;;4.13;2.40;;;;;;;;;;5076599;28;20218;-73
2023/09/16 14:11:27;;;;;;;7.23;2.73;;;;;;;;;;5076185;28;20196;-73
2023/09/16 14:13:54;;;;;;;3.47;2.43;;;;;;;;;;5058539;28;20645;-73
2023/09/16 14:16:21;;;;;;;4.30;2.13;;;;;;;;;;5059291;28;20249;-73
2023/09/16 14:18:48;;;;;;;2.67;2.00;;;;;;;;;;5074079;28;20274;-73
2023/09/16 14:21:15;;;;;;;4.17;2.07;;;;;;;;;;5025425;28;20200;-73
2023/09/16 14:23:42;;;;;;;4.57;2.20;;;;;;;;;;5075972;28;20518;-73
2023/09/16 14:26:09;;;;;;;4.67;2.50;;;;;;;;;;5075838;28;20182;-73
2023/09/16 14:28:35;;;;;;;4.57;2.20;;;;;;;;;;5057745;28;20228;-73
2023/09/16 14:31:07;;;;;;;6.23;2.57;;;;;;;;;;5058119;28;20599;-73
2023/09/16 14:33:35;;;;;;;4.13;2.50;;;;;;;;;;5076287;28;20269;-73
2023/09/16 14:36:03;;;;;;;3.50;2.10;;;;;;;;;;5057563;28;20227;-73
2023/09/16 14:42:31;;;;;;;4.33;2.40;;;;;;;;;;5075932;28;20180;-74
2023/09/16 14:48:58;;;;;;;5.27;2.63;;;;;;;;;;5075611;28;20245;-74
2023/09/16 14:51:27;;;;;;;2.97;2.20;;;;;;;;;;5057908;28;20184;-74
2023/09/16 14:53:55;;;;;;;3.73;2.37;;;;;;;;;;5074957;28;20198;-74
2023/09/16 14:56:22;;;;;;;3.67;2.30;;;;;;;;;;5056029;28;20540;-74
2023/09/16 15:07:06;;;;;;;3.60;2.60;;;;;;;;;;5073066;28;20677;-74
2023/09/16 15:09:33;;;;;;;5.03;2.07;;;;;;;;;;5057760;28;20532;-74
2023/09/16 15:20:17;;;;;;;2.43;2.07;;;;;;;;;;5074523;28;20194;-72
2023/09/16 15:26:43;;;;;;;7.93;2.40;;;;;;;;;;5074242;28;20217;-67
2023/09/16 15:33:09;;;;;;;3.10;2.30;;;;;;;;;;5074135;28;20148;-73
2023/09/16 15:35:36;;;;;;;5.23;2.53;;;;;;;;;;5055759;28;20233;-72
2023/09/16 15:38:20;;;;;;;5.97;2.80;;;;;;;;;;5073738;28;20628;-73
2023/09/16 15:40:47;;;;;;;5.20;2.20;;;;;;;;;;5054306;28;20171;-73
2023/09/16 15:46:45;;;;;;;4.63;2.60;;;;;;;;;;5074195;28;20147;-71
2023/09/16 15:49:12;;;;;;;4.87;2.53;;;;;;;;;;5074892;28;20202;-72
2023/09/16 16:02:50;;;;;;;5.80;2.50;;;;;;;;;;5057039;28;20192;-72
2023/09/16 16:09:17;;;;;;;4.13;2.50;;;;;;;;;;5053766;28;20221;-72
2023/09/16 16:11:44;;;;;;;3.57;2.50;;;;;;;;;;5036576;28;20209;-72
2023/09/16 16:14:11;;;;;;;4.37;2.60;;;;;;;;;;5052340;28;20198;-72
2023/09/16 16:20:39;;;;;;;4.53;3.07;;;;;;;;;;5073996;28;20244;-72
2023/09/16 16:27:07;;;;;;;6.30;2.67;;;;;;;;;;5073855;28;20150;-72
2023/09/16 16:29:34;;;;;;;4.17;2.70;;;;;;;;;;5056059;28;20672;-72
2023/09/16 16:32:19;;;;;;;5.60;2.70;;;;;;;;;;5073832;28;20151;-72
2023/09/16 16:34:50;;;;;;;5.77;2.90;;;;;;;;;;5024943;28;20193;-72
2023/09/16 16:37:19;;;;;;;6.00;2.80;;;;;;;;;;5055952;28;20214;-72
2023/09/16 16:39:46;;;;;;;5.90;2.77;;;;;;;;;;5039788;28;20198;-73
2023/09/16 16:42:15;;;;;;;3.60;2.63;;;;;;;;;;5056143;28;20262;-72
2023/09/16 16:44:43;;;;;;;5.43;2.67;;;;;;;;;;5056543;28;20194;-71
2023/09/16 16:47:11;;;;;;;5.13;2.70;;;;;;;;;;5073694;28;20197;-71
2023/09/16 16:49:43;;;;;;;9.40;2.80;;;;;;;;;;5056102;28;20194;-72
2023/09/16 16:56:10;;;;;;;5.67;2.70;;;;;;;;;;5055693;28;20545;-73
2023/09/16 16:58:38;;;;;;;7.00;2.83;;;;;;;;;;5042161;28;20175;-72
2023/09/16 17:01:06;;;;;;;3.93;2.77;;;;;;;;;;5059562;28;20186;-73
2023/09/16 17:03:33;;;;;;;10.00;3.40;;;;;;;;;;5076365;28;20225;-73
2023/09/16 17:09:55;;;;;;;5.27;3.10;;;;;;;;;;5076913;28;20335;-72
2023/09/16 17:16:21;;;;;;;6.27;3.47;;;;;;;;;;5077117;28;20528;-73
2023/09/16 17:22:51;;;;;;;5.70;2.90;;;;;;;;;;5076992;28;20694;-72
2023/09/16 17:25:19;;;;;;;6.47;3.17;;;;;;;;;;5068453;28;20525;-72
2023/09/16 17:27:47;;;;;;;5.53;3.10;;;;;;;;;;5039409;28;20198;-72
2023/09/16 17:34:17;;;;;;;7.03;3.20;;;;;;;;;;5076632;28;20155;-73
2023/09/16 17:36:45;;;;;;;8.90;3.80;;;;;;;;;;5059771;28;20255;-73
2023/09/16 17:39:31;;;;;;;6.30;3.37;;;;;;;;;;5077085;28;20151;-72
2023/09/16 17:41:58;;;;;;;5.77;3.37;;;;;;;;;;5042397;28;20194;-72
2023/09/16 17:44:26;;;;;;;8.33;4.03;;;;;;;;;;5075357;28;20182;-73
2023/09/16 17:46:56;;;;;;;7.67;3.70;;;;;;;;;;5058901;28;20724;-72
2023/09/16 17:49:23;;;;;;;9.27;4.30;;;;;;;;;;5058962;28;20224;-72
2023/09/16 17:55:44;;;;;;;7.43;3.90;;;;;;;;;;5076599;28;20241;-72
2023/09/16 17:58:11;;;;;;;10.20;4.17;;;;;;;;;;5076770;28;20240;-72
2023/09/16 18:04:39;;;;;;;10.73;4.33;;;;;;;;;;5076495;28;20153;-73
2023/09/16 18:11:06;;;;;;;28.33;5.33;;;;;;;;;;5075862;28;20687;-74
2023/09/16 18:17:32;;;;;;;24.80;5.80;;;;;;;;;;5075950;28;20239;-76
2023/09/16 18:20:16;;;;;;;18.83;6.17;;;;;;;;;;5076083;28;20502;-77
2023/09/16 18:22:43;;;;;;;25.73;6.70;;;;;;;;;;5076317;28;20221;-77
2023/09/16 18:25:10;;;;;;;29.63;7.07;;;;;;;;;;5075817;28;20182;-77
2023/09/16 18:27:37;;;;;;;20.73;7.50;;;;;;;;;;5058454;28;20207;-76
2023/09/16 18:30:05;;;;;;;35.17;8.17;;;;;;;;;;5041483;28;20230;-77
2023/09/16 18:32:32;;;;;;;38.50;8.50;;;;;;;;;;5075526;28;20194;-77
2023/09/16 18:34:58;;;;;;;16.40;6.93;;;;;;;;;;5058428;28;20285;-78
2023/09/16 18:37:25;;;;;;;15.87;5.87;;;;;;;;;;5075765;28;20536;-77
2023/09/16 18:39:54;;;;;;;16.03;6.33;;;;;;;;;;5058094;28;20214;-77
2023/09/16 18:42:20;;;;;;;19.87;6.97;;;;;;;;;;5076208;28;20189;-77
2023/09/16 18:44:47;;;;;;;15.73;6.13;;;;;;;;;;5057593;28;20185;-77
2023/09/16 18:51:15;;;;;;;14.07;5.43;;;;;;;;;;5055235;28;20243;-77
2023/09/16 18:53:42;;;;;;;9.87;5.63;;;;;;;;;;5055464;28;20561;-77
2023/09/16 18:56:10;;;;;;;10.20;5.63;;;;;;;;;;5055066;28;20211;-77
2023/09/16 18:58:37;;;;;;;12.70;5.33;;;;;;;;;;5067563;28;20251;-77
2023/09/16 19:01:04;;;;;;;12.13;5.30;;;;;;;;;;5056700;28;20193;-77
2023/09/16 19:03:33;;;;;;;9.23;5.33;;;;;;;;;;5057935;28;20267;-77
2023/09/16 19:06:00;;;;;;;10.57;4.97;;;;;;;;;;5056985;28;20232;-77
2023/09/16 19:08:27;;;;;;;13.20;4.97;;;;;;;;;;5075331;28;20186;-77
2023/09/16 19:11:11;;;;;;;11.23;4.83;;;;;;;;;;5074945;28;20221;-77
2023/09/16 19:13:38;;;;;;;8.10;5.07;;;;;;;;;;5074708;28;20190;-77
2023/09/16 19:16:07;;;;;;;7.63;4.33;;;;;;;;;;5074914;28;20180;-77
2023/09/16 19:18:35;;;;;;;12.93;4.80;;;;;;;;;;5056599;28;20645;-77
2023/09/16 19:21:02;;;;;;;7.67;4.17;;;;;;;;;;5074805;28;20198;-77
2023/09/16 19:23:30;;;;;;;11.83;4.80;;;;;;;;;;5057214;28;20194;-77
2023/09/16 19:25:58;;;;;;;6.73;4.50;;;;;;;;;;5075061;28;20529;-77
2023/09/16 19:28:26;;;;;;;8.57;4.43;;;;;;;;;;5041241;28;20190;-74
2023/09/16 19:30:54;;;;;;;8.97;4.27;;;;;;;;;;5074970;28;20210;-74
2023/09/16 19:33:21;;;;;;;7.57;4.53;;;;;;;;;;5058455;28;20566;-73
2023/09/16 19:39:49;;;;;;;11.03;4.60;;;;;;;;;;5075601;28;20152;-81
2023/09/16 19:42:20;;;;;;;6.87;4.77;;;;;;;;;;5042742;28;20280;-78
2023/09/16 19:45:06;;;;;;;7.40;4.67;;;;;;;;;;5058919;28;20154;-78
2023/09/16 19:52:01;;;;;;;8.43;5.20;;;;;;;;;;5074326;28;20370;-78
2023/09/16 19:58:27;;;;;;;12.23;4.70;;;;;;;;;;5074324;28;20184;-78
2023/09/16 20:01:01;;;;;;;8.40;4.63;;;;;;;;;;5056272;28;20190;-78
2023/09/16 20:03:28;;;;;;;7.63;4.20;;;;;;;;;;5057536;28;20170;-78
2023/09/16 20:05:55;;;;;;;6.97;4.20;;;;;;;;;;5040907;28;20542;-78
2023/09/16 20:16:52;;;;;;;8.70;4.20;;;;;;;;;;5073872;28;20592;-77
2023/09/16 20:19:36;;;;;;;8.93;4.63;;;;;;;;;;5074024;28;20154;-78
2023/09/16 20:22:03;;;;;;;8.07;4.60;;;;;;;;;;5056366;28;20200;-78
2023/09/16 20:28:23;;;;;;;10.03;4.90;;;;;;;;;;5074021;28;20238;-78
2023/09/16 20:34:49;;;;;;;9.93;5.57;;;;;;;;;;5073942;28;20540;-78
2023/09/16 20:37:16;;;;;;;11.77;6.03;;;;;;;;;;5056173;28;20182;-79
2023/09/16 20:39:43;;;;;;;7.70;5.83;;;;;;;;;;5039623;28;20637;-79